createdAt,value
2017-08-05T00:00:57.186Z,17.02
2017-08-05T00:01:57.908Z,16.93
2017-08-05T00:02:58.646Z,16.94
2017-08-05T00:03:59.363Z,16.96
2017-08-05T00:05:00.083Z,16.86
2017-08-05T00:06:00.805Z,16.91
2017-08-05T00:07:01.524Z,16.79
2017-08-05T00:08:02.269Z,16.90
2017-08-05T00:09:03.028Z,16.78
2017-08-05T00:10:03.731Z,16.84
2017-08-05T00:11:04.454Z,16.78
2017-08-05T00:12:05.186Z,16.78
2017-08-05T00:13:05.905Z,16.75
2017-08-05T00:14:06.629Z,16.76
2017-08-05T00:15:07.348Z,16.75
2017-08-05T00:16:08.093Z,16.72
2017-08-05T00:17:08.813Z,16.66
2017-08-05T00:18:09.533Z,16.65
2017-08-05T00:19:10.247Z,16.68
2017-08-05T00:20:10.969Z,16.72
2017-08-05T00:21:11.683Z,16.71
2017-08-05T00:22:12.404Z,16.79
2017-08-05T00:23:13.121Z,16.79
2017-08-05T00:24:13.840Z,16.76
2017-08-05T00:25:14.561Z,16.87
2017-08-05T00:26:15.277Z,16.84
2017-08-05T00:27:15.995Z,16.71
2017-08-05T00:28:16.711Z,16.68
2017-08-05T00:29:17.432Z,16.69
2017-08-05T00:30:18.149Z,16.71
2017-08-05T00:31:18.866Z,16.64
2017-08-05T00:32:19.584Z,16.69
2017-08-05T00:33:20.305Z,16.64
2017-08-05T00:34:21.045Z,16.68
2017-08-05T00:35:21.789Z,16.61
2017-08-05T00:36:22.505Z,16.61
2017-08-05T00:37:23.230Z,16.58
2017-08-05T00:38:23.968Z,16.64
2017-08-05T00:39:24.690Z,16.61
2017-08-05T00:40:25.432Z,16.65
2017-08-05T00:41:26.155Z,16.56
2017-08-05T00:42:26.892Z,16.58
2017-08-05T00:43:27.617Z,16.56
2017-08-05T00:44:28.333Z,16.51
2017-08-05T00:45:29.053Z,16.58
2017-08-05T00:46:29.769Z,16.53
2017-08-05T00:47:30.487Z,16.53
2017-08-05T00:48:31.227Z,16.54
2017-08-05T00:49:31.953Z,16.56
2017-08-05T00:50:32.662Z,16.53
2017-08-05T00:51:33.384Z,16.53
2017-08-05T00:52:34.101Z,16.58
2017-08-05T00:53:34.835Z,16.56
2017-08-05T00:54:35.570Z,16.56
2017-08-05T00:55:36.285Z,16.42
2017-08-05T00:56:37.010Z,16.38
2017-08-05T00:57:37.751Z,16.39
2017-08-05T00:58:38.470Z,16.46
2017-08-05T00:59:39.187Z,16.35
2017-08-05T01:00:39.923Z,16.32
2017-08-05T01:01:40.641Z,16.35
2017-08-05T01:02:41.366Z,16.33
2017-08-05T01:03:42.085Z,16.31
2017-08-05T01:04:42.804Z,16.32
2017-08-05T01:05:43.518Z,16.42
2017-08-05T01:06:44.241Z,16.32
2017-08-05T01:07:44.957Z,16.29
2017-08-05T01:08:45.683Z,16.28
2017-08-05T01:09:46.397Z,16.46
2017-08-05T01:10:47.111Z,16.28
2017-08-05T01:11:47.830Z,16.31
2017-08-05T01:12:48.551Z,16.33
2017-08-05T01:13:49.268Z,16.24
2017-08-05T01:14:50.011Z,16.26
2017-08-05T01:15:50.731Z,16.29
2017-08-05T01:16:51.451Z,16.23
2017-08-05T01:17:52.171Z,16.31
2017-08-05T01:18:52.891Z,16.12
2017-08-05T01:19:53.611Z,16.24
2017-08-05T01:20:54.326Z,16.13
2017-08-05T01:21:55.066Z,16.08
2017-08-05T01:22:55.787Z,16.12
2017-08-05T01:23:56.527Z,16.13
2017-08-05T01:24:57.240Z,16.09
2017-08-05T01:25:57.966Z,16.29
2017-08-05T01:26:58.680Z,16.17
2017-08-05T01:27:59.416Z,16.21
2017-08-05T01:29:00.135Z,16.04
2017-08-05T01:30:00.858Z,16.13
2017-08-05T01:31:01.578Z,16.21
2017-08-05T01:32:02.293Z,16.12
2017-08-05T01:33:03.036Z,16.08
2017-08-05T01:34:03.753Z,16.01
2017-08-05T01:35:04.473Z,16.13
2017-08-05T01:36:05.438Z,16.01
2017-08-05T01:37:06.161Z,16.10
2017-08-05T01:38:06.879Z,15.98
2017-08-05T01:39:07.619Z,15.95
2017-08-05T01:40:08.360Z,16.00
2017-08-05T01:41:09.082Z,16.00
2017-08-05T01:42:09.795Z,15.97
2017-08-05T01:43:10.513Z,15.97
2017-08-05T01:44:11.234Z,15.98
2017-08-05T01:45:11.951Z,16.00
2017-08-05T01:46:12.668Z,15.90
2017-08-05T01:47:13.407Z,15.91
2017-08-05T01:48:14.126Z,16.00
2017-08-05T01:49:14.845Z,15.97
2017-08-05T01:50:15.590Z,15.92
2017-08-05T01:51:16.306Z,15.92
2017-08-05T01:52:17.027Z,15.92
2017-08-05T01:53:17.745Z,15.88
2017-08-05T01:54:18.463Z,15.94
2017-08-05T01:55:19.184Z,15.80
2017-08-05T01:56:19.900Z,15.80
2017-08-05T01:57:20.616Z,15.92
2017-08-05T01:58:21.358Z,15.91
2017-08-05T01:59:22.076Z,15.77
2017-08-05T02:00:22.794Z,15.88
2017-08-05T02:01:23.536Z,15.79
2017-08-05T02:02:24.250Z,15.70
2017-08-05T02:03:24.990Z,15.82
2017-08-05T02:04:25.707Z,15.79
2017-08-05T02:05:26.428Z,15.82
2017-08-05T02:06:27.147Z,15.76
2017-08-05T02:07:27.867Z,15.84
2017-08-05T02:08:28.588Z,15.84
2017-08-05T02:09:29.310Z,15.82
2017-08-05T02:10:30.030Z,15.84
2017-08-05T02:11:30.768Z,15.75
2017-08-05T02:12:31.508Z,15.68
2017-08-05T02:13:32.248Z,15.72
2017-08-05T02:14:32.967Z,15.75
2017-08-05T02:15:33.682Z,15.68
2017-08-05T02:16:34.399Z,15.59
2017-08-05T02:17:35.115Z,15.68
2017-08-05T02:18:35.834Z,15.64
2017-08-05T02:19:36.554Z,15.57
2017-08-05T02:20:37.271Z,15.65
2017-08-05T02:21:37.989Z,15.62
2017-08-05T02:22:38.708Z,15.61
2017-08-05T02:23:39.426Z,15.70
2017-08-05T02:24:40.169Z,15.67
2017-08-05T02:25:40.890Z,15.68
2017-08-05T02:26:41.628Z,15.68
2017-08-05T02:27:42.345Z,15.61
2017-08-05T02:28:43.064Z,15.67
2017-08-05T02:29:43.780Z,15.65
2017-08-05T02:30:44.500Z,15.67
2017-08-05T02:31:45.224Z,15.68
2017-08-05T02:32:45.947Z,15.65
2017-08-05T02:33:46.658Z,15.62
2017-08-05T02:34:47.378Z,15.65
2017-08-05T02:35:48.095Z,15.70
2017-08-05T02:36:48.811Z,15.67
2017-08-05T02:37:49.539Z,15.75
2017-08-05T02:38:50.259Z,15.73
2017-08-05T02:39:50.971Z,15.82
2017-08-05T02:40:51.693Z,15.83
2017-08-05T02:41:52.412Z,15.76
2017-08-05T02:42:53.135Z,15.92
2017-08-05T02:43:53.846Z,15.79
2017-08-05T02:44:54.588Z,15.82
2017-08-05T02:45:55.326Z,15.86
2017-08-05T02:46:56.045Z,15.79
2017-08-05T02:47:56.786Z,15.82
2017-08-05T02:48:57.509Z,15.84
2017-08-05T02:49:58.227Z,15.83
2017-08-05T02:50:58.944Z,15.94
2017-08-05T02:51:59.681Z,15.76
2017-08-05T02:53:00.384Z,15.86
2017-08-05T02:54:01.100Z,15.86
2017-08-05T02:55:01.841Z,15.83
2017-08-05T02:56:02.560Z,15.83
2017-08-05T02:57:03.300Z,15.86
2017-08-05T02:58:04.020Z,15.91
2017-08-05T02:59:04.759Z,15.92
2017-08-05T03:00:05.479Z,15.97
2017-08-05T03:01:06.198Z,15.91
2017-08-05T03:02:06.914Z,15.92
2017-08-05T03:03:07.637Z,15.90
2017-08-05T03:04:08.354Z,15.75
2017-08-05T03:05:09.071Z,15.88
2017-08-05T03:06:09.791Z,15.86
2017-08-05T03:07:10.510Z,15.80
2017-08-05T03:08:11.255Z,15.82
2017-08-05T03:09:11.992Z,15.76
2017-08-05T03:10:12.710Z,15.84
2017-08-05T03:11:13.427Z,15.80
2017-08-05T03:12:14.169Z,15.80
2017-08-05T03:13:14.887Z,15.83
2017-08-05T03:14:15.606Z,15.82
2017-08-05T03:15:16.321Z,15.97
2017-08-05T03:16:17.047Z,15.84
2017-08-05T03:17:17.759Z,15.91
2017-08-05T03:18:18.480Z,15.97
2017-08-05T03:19:19.196Z,15.97
2017-08-05T03:20:19.915Z,15.95
2017-08-05T03:21:20.637Z,16.04
2017-08-05T03:22:21.373Z,16.08
2017-08-05T03:23:22.091Z,16.08
2017-08-05T03:24:22.810Z,16.16
2017-08-05T03:25:23.532Z,16.20
2017-08-05T03:26:24.252Z,16.13
2017-08-05T03:27:24.972Z,16.26
2017-08-05T03:28:25.689Z,16.28
2017-08-05T03:29:26.406Z,16.31
2017-08-05T03:30:27.121Z,16.23
2017-08-05T03:31:27.843Z,16.29
2017-08-05T03:32:28.560Z,16.32
2017-08-05T03:33:29.297Z,16.29
2017-08-05T03:34:30.015Z,16.31
2017-08-05T03:35:30.734Z,16.28
2017-08-05T03:36:31.478Z,16.29
2017-08-05T03:37:32.196Z,16.24
2017-08-05T03:38:32.913Z,16.29
2017-08-05T03:39:33.631Z,16.28
2017-08-05T03:40:34.371Z,16.26
2017-08-05T03:41:35.091Z,16.29
2017-08-05T03:42:35.809Z,16.28
2017-08-05T03:43:36.526Z,16.35
2017-08-05T03:44:37.270Z,16.31
2017-08-05T03:45:37.991Z,16.36
2017-08-05T03:46:38.709Z,16.28
2017-08-05T03:47:39.429Z,16.29
2017-08-05T03:48:40.153Z,16.32
2017-08-05T03:49:40.869Z,16.36
2017-08-05T03:50:41.593Z,16.31
2017-08-05T03:51:42.331Z,16.38
2017-08-05T03:52:43.052Z,16.36
2017-08-05T03:53:43.769Z,16.39
2017-08-05T03:54:44.487Z,16.38
2017-08-05T03:55:45.208Z,16.43
2017-08-05T03:56:45.931Z,16.54
2017-08-05T03:57:46.648Z,16.46
2017-08-05T03:58:47.372Z,16.41
2017-08-05T03:59:48.092Z,16.50
2017-08-05T04:00:48.812Z,16.54
2017-08-05T04:01:49.530Z,16.50
2017-08-05T04:02:50.273Z,16.56
2017-08-05T04:03:51.020Z,16.56
2017-08-05T04:04:51.764Z,16.50
2017-08-05T04:05:52.503Z,16.57
2017-08-05T04:06:53.224Z,16.57
2017-08-05T04:07:53.951Z,16.54
2017-08-05T04:08:54.692Z,16.54
2017-08-05T04:09:55.441Z,16.57
2017-08-05T04:10:56.183Z,16.56
2017-08-05T04:11:56.905Z,16.58
2017-08-05T04:12:57.627Z,16.50
2017-08-05T04:13:58.349Z,16.66
2017-08-05T04:14:59.070Z,16.64
2017-08-05T04:15:59.794Z,16.61
2017-08-05T04:17:00.510Z,16.66
2017-08-05T04:18:01.234Z,16.57
2017-08-05T04:19:01.955Z,16.57
2017-08-05T04:20:02.683Z,16.50
2017-08-05T04:21:03.396Z,16.61
2017-08-05T04:22:04.119Z,16.64
2017-08-05T04:23:04.843Z,16.74
2017-08-05T04:24:05.566Z,16.76
2017-08-05T04:25:06.289Z,16.69
2017-08-05T04:26:07.007Z,16.61
2017-08-05T04:27:07.732Z,16.68
2017-08-05T04:28:08.453Z,16.76
2017-08-05T04:29:09.189Z,16.79
2017-08-05T04:30:09.897Z,16.78
2017-08-05T04:31:10.647Z,16.78
2017-08-05T04:32:11.367Z,16.78
2017-08-05T04:33:12.088Z,16.87
2017-08-05T04:34:12.836Z,16.81
2017-08-05T04:35:13.578Z,16.78
2017-08-05T04:36:14.303Z,16.79
2017-08-05T04:37:15.021Z,16.81
2017-08-05T04:38:15.749Z,16.79
2017-08-05T04:39:16.489Z,16.81
2017-08-05T04:40:17.213Z,16.84
2017-08-05T04:41:17.938Z,16.72
2017-08-05T04:42:18.684Z,16.76
2017-08-05T04:43:19.410Z,16.76
2017-08-05T04:44:20.131Z,16.84
2017-08-05T04:45:20.852Z,16.83
2017-08-05T04:46:21.575Z,16.94
2017-08-05T04:47:22.299Z,16.83
2017-08-05T04:48:23.024Z,16.75
2017-08-05T04:49:23.772Z,16.93
2017-08-05T04:50:24.496Z,16.79
2017-08-05T04:51:25.217Z,16.79
2017-08-05T04:52:26.190Z,16.76
2017-08-05T04:53:26.935Z,16.76
2017-08-05T04:54:27.657Z,16.75
2017-08-05T04:55:28.384Z,16.79
2017-08-05T04:56:29.108Z,16.83
2017-08-05T04:57:29.830Z,16.78
2017-08-05T04:58:30.551Z,16.78
2017-08-05T04:59:31.275Z,16.83
2017-08-05T05:00:31.998Z,16.78
2017-08-05T05:01:32.720Z,16.89
2017-08-05T05:02:33.467Z,16.84
2017-08-05T05:03:34.192Z,16.89
2017-08-05T05:04:34.916Z,16.90
2017-08-05T05:05:35.642Z,16.90
2017-08-05T05:06:36.367Z,17.01
2017-08-05T05:07:37.114Z,16.86
2017-08-05T05:08:37.835Z,16.86
2017-08-05T05:09:38.558Z,16.86
2017-08-05T05:10:39.304Z,16.90
2017-08-05T05:11:40.029Z,16.89
2017-08-05T05:12:40.750Z,16.84
2017-08-05T05:13:41.474Z,16.89
2017-08-05T05:14:42.201Z,16.75
2017-08-05T05:15:42.926Z,16.79
2017-08-05T05:16:43.652Z,16.90
2017-08-05T05:17:44.378Z,16.89
2017-08-05T05:18:45.120Z,16.78
2017-08-05T05:19:45.864Z,16.84
2017-08-05T05:20:46.588Z,16.75
2017-08-05T05:21:47.332Z,16.90
2017-08-05T05:22:48.056Z,16.90
2017-08-05T05:23:48.779Z,16.84
2017-08-05T05:24:49.523Z,16.75
2017-08-05T05:25:50.251Z,16.69
2017-08-05T05:26:50.991Z,16.61
2017-08-05T05:27:51.719Z,16.64
2017-08-05T05:28:52.440Z,16.58
2017-08-05T05:29:53.164Z,16.60
2017-08-05T05:30:53.909Z,16.58
2017-08-05T05:31:54.632Z,16.58
2017-08-05T05:32:55.375Z,16.42
2017-08-05T05:33:56.095Z,16.38
2017-08-05T05:34:56.840Z,16.33
2017-08-05T05:35:57.586Z,16.35
2017-08-05T05:36:58.313Z,16.28
2017-08-05T05:37:59.039Z,16.35
2017-08-05T05:38:59.764Z,16.35
2017-08-05T05:40:00.506Z,16.35
2017-08-05T05:41:01.232Z,16.42
2017-08-05T05:42:01.954Z,16.39
2017-08-05T05:43:02.684Z,16.38
2017-08-05T05:44:03.424Z,16.35
2017-08-05T05:45:04.150Z,16.28
2017-08-05T05:46:04.894Z,16.35
2017-08-05T05:47:05.619Z,16.29
2017-08-05T05:48:06.343Z,16.32
2017-08-05T05:49:07.069Z,16.28
2017-08-05T05:50:07.793Z,16.28
2017-08-05T05:51:08.514Z,16.21
2017-08-05T05:52:09.237Z,16.13
2017-08-05T05:53:09.982Z,16.28
2017-08-05T05:54:10.707Z,16.32
2017-08-05T05:55:11.434Z,16.26
2017-08-05T05:56:12.156Z,16.26
2017-08-05T05:57:12.883Z,16.29
2017-08-05T05:58:13.604Z,16.24
2017-08-05T05:59:14.332Z,16.32
2017-08-05T06:00:15.081Z,16.32
2017-08-05T06:01:15.802Z,16.28
2017-08-05T06:02:16.527Z,16.24
2017-08-05T06:03:17.254Z,16.28
2017-08-05T06:04:18.003Z,16.20
2017-08-05T06:05:18.728Z,16.13
2017-08-05T06:06:19.448Z,16.01
2017-08-05T06:07:20.174Z,16.09
2017-08-05T06:08:20.903Z,16.01
2017-08-05T06:09:21.623Z,16.02
2017-08-05T06:10:22.368Z,16.05
2017-08-05T06:11:23.094Z,16.01
2017-08-05T06:12:23.815Z,15.98
2017-08-05T06:13:24.542Z,15.95
2017-08-05T06:14:25.291Z,16.01
2017-08-05T06:15:26.013Z,15.97
2017-08-05T06:16:26.740Z,15.98
2017-08-05T06:17:27.468Z,16.05
2017-08-05T06:18:28.214Z,16.02
2017-08-05T06:19:28.950Z,15.98
2017-08-05T06:20:29.674Z,15.95
2017-08-05T06:21:30.397Z,15.98
2017-08-05T06:22:31.130Z,15.97
2017-08-05T06:23:31.875Z,16.08
2017-08-05T06:24:32.604Z,16.01
2017-08-05T06:25:33.331Z,16.12
2017-08-05T06:26:34.062Z,16.24
2017-08-05T06:27:34.784Z,16.17
2017-08-05T06:28:35.537Z,16.08
2017-08-05T06:29:36.262Z,16.09
2017-08-05T06:30:36.988Z,16.13
2017-08-05T06:31:37.719Z,16.23
2017-08-05T06:32:38.446Z,16.24
2017-08-05T06:33:39.191Z,16.26
2017-08-05T06:34:39.919Z,16.29
2017-08-05T06:35:40.652Z,16.32
2017-08-05T06:36:41.376Z,16.26
2017-08-05T06:37:42.100Z,16.23
2017-08-05T06:38:42.829Z,16.20
2017-08-05T06:39:43.553Z,16.24
2017-08-05T06:40:44.284Z,16.20
2017-08-05T06:41:45.036Z,16.31
2017-08-05T06:42:45.758Z,16.29
2017-08-05T06:43:46.485Z,16.23
2017-08-05T06:44:47.232Z,16.17
2017-08-05T06:45:47.956Z,16.21
2017-08-05T06:46:48.678Z,16.17
2017-08-05T06:47:49.406Z,16.08
2017-08-05T06:48:50.132Z,16.16
2017-08-05T06:49:50.879Z,16.10
2017-08-05T06:50:51.602Z,16.21
2017-08-05T06:51:52.350Z,16.20
2017-08-05T06:52:53.079Z,16.21
2017-08-05T06:53:53.801Z,16.23
2017-08-05T06:54:54.525Z,16.20
2017-08-05T06:55:55.272Z,16.31
2017-08-05T06:56:55.998Z,16.33
2017-08-05T06:57:56.729Z,16.26
2017-08-05T06:58:57.450Z,16.28
2017-08-05T06:59:58.179Z,16.42
2017-08-05T07:00:58.926Z,16.49
2017-08-05T07:01:59.672Z,16.49
2017-08-05T07:03:00.401Z,16.50
2017-08-05T07:04:01.128Z,16.50
2017-08-05T07:05:01.853Z,16.50
2017-08-05T07:06:02.580Z,16.56
2017-08-05T07:07:03.307Z,16.39
2017-08-05T07:08:04.032Z,16.39
2017-08-05T07:09:04.753Z,16.46
2017-08-05T07:10:05.474Z,16.47
2017-08-05T07:11:06.202Z,16.56
2017-08-05T07:12:06.930Z,16.58
2017-08-05T07:13:07.653Z,16.57
2017-08-05T07:14:08.379Z,16.61
2017-08-05T07:15:09.106Z,16.69
2017-08-05T07:16:09.833Z,16.72
2017-08-05T07:17:10.560Z,16.72
2017-08-05T07:18:11.283Z,16.74
2017-08-05T07:19:12.013Z,16.66
2017-08-05T07:20:12.739Z,16.57
2017-08-05T07:21:13.486Z,16.50
2017-08-05T07:22:14.212Z,16.54
2017-08-05T07:23:14.959Z,16.50
2017-08-05T07:24:15.707Z,16.51
2017-08-05T07:25:16.427Z,16.54
2017-08-05T07:26:17.155Z,16.54
2017-08-05T07:27:17.881Z,16.56
2017-08-05T07:28:18.608Z,16.53
2017-08-05T07:29:19.357Z,16.49
2017-08-05T07:30:20.082Z,16.51
2017-08-05T07:31:20.811Z,16.49
2017-08-05T07:32:21.533Z,16.43
2017-08-05T07:33:22.279Z,16.46
2017-08-05T07:34:23.006Z,16.43
2017-08-05T07:35:23.756Z,16.51
2017-08-05T07:36:24.505Z,16.53
2017-08-05T07:37:25.257Z,16.43
2017-08-05T07:38:25.980Z,16.41
2017-08-05T07:39:26.710Z,16.50
2017-08-05T07:40:27.437Z,16.58
2017-08-05T07:41:28.164Z,16.65
2017-08-05T07:42:28.891Z,16.69
2017-08-05T07:43:29.620Z,16.79
2017-08-05T07:44:30.370Z,16.76
2017-08-05T07:45:31.095Z,16.89
2017-08-05T07:46:31.821Z,16.96
2017-08-05T07:47:32.572Z,17.05
2017-08-05T07:48:33.300Z,17.02
2017-08-05T07:49:34.051Z,17.04
2017-08-05T07:50:34.802Z,17.12
2017-08-05T07:51:35.527Z,17.01
2017-08-05T07:52:36.277Z,16.96
2017-08-05T07:53:37.030Z,17.02
2017-08-05T07:54:37.756Z,16.91
2017-08-05T07:55:38.503Z,16.99
2017-08-05T07:56:39.228Z,16.97
2017-08-05T07:57:39.960Z,16.99
2017-08-05T07:58:40.687Z,17.02
2017-08-05T07:59:41.440Z,16.97
2017-08-05T08:00:42.162Z,17.05
2017-08-05T08:01:42.892Z,16.99
2017-08-05T08:02:43.631Z,17.04
2017-08-05T08:03:44.377Z,16.97
2017-08-05T08:04:45.100Z,16.91
2017-08-05T08:05:45.823Z,16.93
2017-08-05T08:06:46.555Z,17.02
2017-08-05T08:07:47.279Z,16.94
2017-08-05T08:08:48.003Z,16.97
2017-08-05T08:09:48.752Z,16.99
2017-08-05T08:10:49.479Z,17.04
2017-08-05T08:11:50.226Z,17.08
2017-08-05T08:12:50.960Z,17.15
2017-08-05T08:13:51.685Z,17.08
2017-08-05T08:14:52.411Z,17.05
2017-08-05T08:15:53.137Z,17.08
2017-08-05T08:16:53.863Z,17.04
2017-08-05T08:17:54.595Z,17.19
2017-08-05T08:18:55.344Z,17.15
2017-08-05T08:19:56.074Z,17.22
2017-08-05T08:20:56.795Z,17.36
2017-08-05T08:21:57.547Z,17.24
2017-08-05T08:22:58.271Z,17.38
2017-08-05T08:23:59.018Z,17.46
2017-08-05T08:24:59.745Z,17.42
2017-08-05T08:26:00.472Z,17.49
2017-08-05T08:27:01.204Z,17.57
2017-08-05T08:28:01.926Z,17.52
2017-08-05T08:29:02.653Z,17.59
2017-08-05T08:30:03.380Z,17.64
2017-08-05T08:31:04.110Z,17.67
2017-08-05T08:32:04.856Z,17.65
2017-08-05T08:33:05.587Z,17.65
2017-08-05T08:34:06.334Z,17.56
2017-08-05T08:35:07.064Z,17.41
2017-08-05T08:36:07.790Z,17.52
2017-08-05T08:37:08.524Z,17.51
2017-08-05T08:38:09.249Z,17.59
2017-08-05T08:39:09.979Z,17.65
2017-08-05T08:40:10.710Z,17.63
2017-08-05T08:41:11.435Z,17.64
2017-08-05T08:42:12.165Z,17.57
2017-08-05T08:43:12.915Z,17.63
2017-08-05T08:44:13.661Z,17.68
2017-08-05T08:45:14.390Z,17.72
2017-08-05T08:46:15.118Z,17.71
2017-08-05T08:47:15.846Z,17.76
2017-08-05T08:48:16.575Z,17.76
2017-08-05T08:49:17.305Z,17.74
2017-08-05T08:50:18.031Z,17.65
2017-08-05T08:51:18.759Z,17.76
2017-08-05T08:52:19.489Z,17.70
2017-08-05T08:53:20.218Z,17.52
2017-08-05T08:54:20.950Z,17.60
2017-08-05T08:55:21.676Z,17.70
2017-08-05T08:56:22.403Z,17.74
2017-08-05T08:57:23.135Z,17.67
2017-08-05T08:58:23.861Z,17.68
2017-08-05T08:59:24.591Z,17.70
2017-08-05T09:00:25.321Z,17.74
2017-08-05T09:01:26.052Z,17.79
2017-08-05T09:02:26.778Z,17.85
2017-08-05T09:03:27.529Z,17.98
2017-08-05T09:04:28.262Z,18.11
2017-08-05T09:05:28.988Z,18.33
2017-08-05T09:06:29.721Z,18.28
2017-08-05T09:07:30.446Z,18.38
2017-08-05T09:08:31.174Z,18.49
2017-08-05T09:09:31.902Z,18.41
2017-08-05T09:10:32.636Z,18.62
2017-08-05T09:11:33.383Z,18.58
2017-08-05T09:12:34.091Z,18.58
2017-08-05T09:13:34.825Z,18.65
2017-08-05T09:14:35.549Z,18.40
2017-08-05T09:15:36.281Z,18.44
2017-08-05T09:16:37.035Z,18.62
2017-08-05T09:17:37.763Z,18.50
2017-08-05T09:18:38.495Z,18.56
2017-08-05T09:19:39.226Z,18.55
2017-08-05T09:20:39.976Z,18.52
2017-08-05T09:21:40.730Z,18.53
2017-08-05T09:22:41.482Z,18.58
2017-08-05T09:23:42.210Z,18.53
2017-08-05T09:24:42.935Z,18.59
2017-08-05T09:25:43.667Z,18.62
2017-08-05T09:26:44.393Z,18.41
2017-08-05T09:27:45.121Z,18.40
2017-08-05T09:28:45.850Z,18.20
2017-08-05T09:29:46.581Z,18.07
2017-08-05T09:30:47.307Z,17.95
2017-08-05T09:31:48.034Z,18.00
2017-08-05T09:32:48.785Z,18.04
2017-08-05T09:33:49.513Z,18.11
2017-08-05T09:34:50.261Z,18.04
2017-08-05T09:35:50.993Z,18.00
2017-08-05T09:36:51.718Z,18.05
2017-08-05T09:37:52.445Z,18.15
2017-08-05T09:38:53.175Z,18.15
2017-08-05T09:39:53.926Z,18.18
2017-08-05T09:40:54.656Z,18.07
2017-08-05T09:41:55.383Z,18.04
2017-08-05T09:42:56.135Z,18.10
2017-08-05T09:43:56.862Z,18.08
2017-08-05T09:44:57.590Z,18.04
2017-08-05T09:45:58.321Z,18.15
2017-08-05T09:46:59.046Z,18.11
2017-08-05T09:47:59.777Z,18.00
2017-08-05T09:49:00.525Z,17.97
2017-08-05T09:50:01.256Z,17.76
2017-08-05T09:51:01.988Z,17.83
2017-08-05T09:52:02.715Z,17.89
2017-08-05T09:53:03.440Z,18.01
2017-08-05T09:54:04.173Z,17.92
2017-08-05T09:55:04.896Z,18.04
2017-08-05T09:56:05.629Z,17.95
2017-08-05T09:57:06.357Z,18.00
2017-08-05T09:58:07.083Z,18.04
2017-08-05T09:59:07.837Z,18.03
2017-08-05T10:00:08.569Z,18.08
2017-08-05T10:01:09.296Z,18.19
2017-08-05T10:02:10.026Z,18.25
2017-08-05T10:03:10.757Z,18.43
2017-08-05T10:04:11.489Z,18.56
2017-08-05T10:05:12.218Z,18.50
2017-08-05T10:06:12.946Z,18.52
2017-08-05T10:07:13.680Z,18.59
2017-08-05T10:08:14.432Z,18.77
2017-08-05T10:09:15.184Z,18.81
2017-08-05T10:10:15.938Z,18.93
2017-08-05T10:11:16.693Z,18.98
2017-08-05T10:12:17.421Z,19.04
2017-08-05T10:13:18.175Z,19.04
2017-08-05T10:14:18.906Z,19.27
2017-08-05T10:15:19.634Z,19.30
2017-08-05T10:16:20.364Z,19.15
2017-08-05T10:17:21.098Z,18.83
2017-08-05T10:18:21.824Z,18.78
2017-08-05T10:19:22.554Z,18.77
2017-08-05T10:20:23.306Z,19.02
2017-08-05T10:21:24.061Z,19.04
2017-08-05T10:22:24.793Z,18.93
2017-08-05T10:23:25.529Z,19.14
2017-08-05T10:24:26.285Z,19.34
2017-08-05T10:25:27.018Z,19.36
2017-08-05T10:26:27.756Z,19.62
2017-08-05T10:27:28.505Z,19.26
2017-08-05T10:28:29.239Z,19.30
2017-08-05T10:29:29.970Z,19.52
2017-08-05T10:30:30.700Z,19.64
2017-08-05T10:31:31.456Z,19.39
2017-08-05T10:32:32.210Z,19.36
2017-08-05T10:33:32.968Z,19.58
2017-08-05T10:34:33.704Z,19.62
2017-08-05T10:35:34.431Z,19.66
2017-08-05T10:36:35.188Z,19.70
2017-08-05T10:37:35.920Z,19.67
2017-08-05T10:38:36.675Z,19.71
2017-08-05T10:39:37.427Z,19.70
2017-08-05T10:40:38.163Z,19.74
2017-08-05T10:41:38.928Z,19.73
2017-08-05T10:42:39.651Z,19.71
2017-08-05T10:43:40.417Z,19.73
2017-08-05T10:44:41.156Z,19.66
2017-08-05T10:45:41.878Z,19.79
2017-08-05T10:46:42.612Z,19.85
2017-08-05T10:47:43.365Z,19.86
2017-08-05T10:48:44.097Z,19.89
2017-08-05T10:49:44.825Z,19.92
2017-08-05T10:50:45.556Z,19.92
2017-08-05T10:51:46.305Z,20.09
2017-08-05T10:52:47.042Z,19.96
2017-08-05T10:53:47.772Z,19.86
2017-08-05T10:54:48.497Z,19.67
2017-08-05T10:55:49.230Z,19.52
2017-08-05T10:56:49.964Z,19.66
2017-08-05T10:57:50.695Z,19.59
2017-08-05T10:58:51.425Z,19.56
2017-08-05T10:59:52.157Z,19.67
2017-08-05T11:00:52.891Z,19.62
2017-08-05T11:01:53.623Z,19.51
2017-08-05T11:02:54.352Z,19.51
2017-08-05T11:03:55.085Z,19.21
2017-08-05T11:04:55.817Z,19.12
2017-08-05T11:05:56.569Z,19.14
2017-08-05T11:06:57.323Z,18.96
2017-08-05T11:07:58.055Z,19.26
2017-08-05T11:08:58.785Z,19.30
2017-08-05T11:09:59.518Z,19.36
2017-08-05T11:11:00.262Z,19.18
2017-08-05T11:12:00.993Z,19.19
2017-08-05T11:13:01.723Z,19.44
2017-08-05T11:14:02.477Z,19.24
2017-08-05T11:15:03.207Z,19.33
2017-08-05T11:16:03.944Z,19.39
2017-08-05T11:17:04.676Z,19.30
2017-08-05T11:18:05.408Z,19.49
2017-08-05T11:19:06.162Z,19.34
2017-08-05T11:20:06.894Z,19.44
2017-08-05T11:21:07.628Z,19.52
2017-08-05T11:22:08.356Z,19.51
2017-08-05T11:23:09.093Z,19.51
2017-08-05T11:24:09.820Z,19.66
2017-08-05T11:25:10.555Z,19.63
2017-08-05T11:26:11.286Z,19.34
2017-08-05T11:27:12.018Z,19.41
2017-08-05T11:28:12.752Z,19.44
2017-08-05T11:29:13.483Z,19.40
2017-08-05T11:30:14.214Z,19.34
2017-08-05T11:31:14.943Z,19.48
2017-08-05T11:32:15.672Z,19.26
2017-08-05T11:33:16.405Z,19.29
2017-08-05T11:34:17.162Z,19.16
2017-08-05T11:35:17.891Z,19.31
2017-08-05T11:36:18.646Z,19.40
2017-08-05T11:37:19.376Z,19.22
2017-08-05T11:38:20.115Z,19.30
2017-08-05T11:39:20.843Z,19.48
2017-08-05T11:40:21.574Z,19.55
2017-08-05T11:41:22.314Z,19.64
2017-08-05T11:42:23.068Z,19.41
2017-08-05T11:43:23.803Z,19.47
2017-08-05T11:44:24.534Z,19.51
2017-08-05T11:45:25.267Z,19.51
2017-08-05T11:46:26.020Z,19.56
2017-08-05T11:47:26.747Z,19.58
2017-08-05T11:48:27.486Z,19.49
2017-08-05T11:49:28.218Z,19.30
2017-08-05T11:50:28.959Z,19.26
2017-08-05T11:51:29.704Z,19.27
2017-08-05T11:52:30.438Z,19.49
2017-08-05T11:53:31.166Z,19.40
2017-08-05T11:54:31.899Z,19.62
2017-08-05T11:55:32.633Z,19.44
2017-08-05T11:56:33.362Z,19.27
2017-08-05T11:57:34.119Z,19.00
2017-08-05T11:58:34.853Z,18.95
2017-08-05T11:59:35.585Z,19.07
2017-08-05T12:00:36.317Z,19.11
2017-08-05T12:01:37.075Z,19.33
2017-08-05T12:02:37.808Z,19.74
2017-08-05T12:03:38.544Z,20.50
2017-08-05T12:04:39.285Z,21.24
2017-08-05T12:05:40.024Z,21.64
2017-08-05T12:06:40.768Z,22.18
2017-08-05T12:07:41.512Z,22.94
2017-08-05T12:08:42.255Z,23.39
2017-08-05T12:09:42.998Z,22.38
2017-08-05T12:10:43.739Z,22.94
2017-08-05T12:11:44.480Z,22.66
2017-08-05T12:12:45.221Z,22.62
2017-08-05T12:13:45.963Z,22.39
2017-08-05T12:14:46.724Z,22.75
2017-08-05T12:15:47.465Z,23.13
2017-08-05T12:16:48.206Z,23.54
2017-08-05T12:17:48.947Z,23.47
2017-08-05T12:18:49.687Z,23.44
2017-08-05T12:19:50.449Z,23.18
2017-08-05T12:20:51.187Z,23.23
2017-08-05T12:21:51.931Z,23.18
2017-08-05T12:22:52.672Z,23.09
2017-08-05T12:23:53.433Z,23.10
2017-08-05T12:24:54.180Z,22.88
2017-08-05T12:25:54.922Z,22.91
2017-08-05T12:26:55.665Z,22.83
2017-08-05T12:27:56.406Z,23.03
2017-08-05T12:28:57.150Z,23.21
2017-08-05T12:29:57.891Z,23.20
2017-08-05T12:30:58.633Z,22.83
2017-08-05T12:31:59.376Z,23.15
2017-08-05T12:33:00.120Z,23.37
2017-08-05T12:34:00.862Z,23.55
2017-08-05T12:35:01.602Z,23.86
2017-08-05T12:36:02.348Z,23.41
2017-08-05T12:37:03.090Z,23.32
2017-08-05T12:38:03.832Z,23.69
2017-08-05T12:39:04.575Z,24.13
2017-08-05T12:40:05.319Z,23.73
2017-08-05T12:41:06.059Z,23.84
2017-08-05T12:42:06.833Z,23.54
2017-08-05T12:43:07.603Z,23.54
2017-08-05T12:44:08.343Z,23.56
2017-08-05T12:45:09.095Z,23.99
2017-08-05T12:46:09.862Z,24.55
2017-08-05T12:47:10.606Z,24.89
2017-08-05T12:48:11.348Z,25.13
2017-08-05T12:49:12.099Z,25.47
2017-08-05T12:50:12.847Z,25.78
2017-08-05T12:51:13.598Z,24.93
2017-08-05T12:52:14.375Z,24.85
2017-08-05T12:53:15.127Z,25.26
2017-08-05T12:54:15.897Z,24.91
2017-08-05T12:55:16.650Z,25.43
2017-08-05T12:56:17.401Z,25.66
2017-08-05T12:57:18.146Z,24.76
2017-08-05T12:58:18.921Z,24.40
2017-08-05T12:59:19.672Z,24.16
2017-08-05T13:00:20.429Z,23.40
2017-08-05T13:01:21.174Z,23.78
2017-08-05T13:02:21.917Z,24.30